Time;durP1;ratioP1;P1;durP2;ratioP2;P2;SDS_P1;SDS_P2;PMS_P1;PMS_P2;Temp;Humidity;BMP_temperature;BMP_pressure;BME280_temperature;BME280_humidity;BME280_pressure;Samples;Min_cycle;Max_cycle;Signal;HPM_P1;HPM_P2
2022/02/08 00:00:55;;;;;;;2.10;1.48;;;17.70;64.40;;;;;;4956914;28;20051;-19
2022/02/08 00:03:21;;;;;;;1.48;1.35;;;17.70;64.40;;;;;;4957000;28;20054;-19
2022/02/08 00:06:01;;;;;;;2.15;1.65;;;17.70;64.40;;;;;;4952707;28;20083;-19
2022/02/08 00:08:27;;;;;;;1.23;1.23;;;17.70;64.50;;;;;;4937946;28;20047;-19
2022/02/08 00:10:53;;;;;;;6.32;1.33;;;17.70;64.50;;;;;;4944273;28;20052;-19
2022/02/08 00:13:18;;;;;;;1.60;1.50;;;17.70;64.20;;;;;;4937777;28;20130;-19
2022/02/08 00:15:44;;;;;;;1.60;1.50;;;17.70;64.30;;;;;;4938314;28;20051;-19
2022/02/08 00:18:09;;;;;;;1.20;1.10;;;17.70;64.30;;;;;;4937642;28;20039;-20
2022/02/08 00:20:35;;;;;;;1.50;1.40;;;17.70;64.20;;;;;;4954284;28;20110;-19
2022/02/08 00:23:01;;;;;;;1.40;1.30;;;17.70;64.20;;;;;;4952496;28;20047;-19
2022/02/08 00:25:26;;;;;;;1.90;1.40;;;17.70;64.20;;;;;;4946953;28;20048;-19
2022/02/08 00:27:52;;;;;;;1.30;1.20;;;17.70;64.20;;;;;;4938350;28;20054;-19
2022/02/08 00:30:17;;;;;;;1.10;1.10;;;17.70;64.20;;;;;;4942575;28;20525;-19
2022/02/08 00:32:43;;;;;;;1.40;1.30;;;17.60;64.20;;;;;;4938587;28;20079;-19
2022/02/08 00:35:08;;;;;;;4.72;1.30;;;17.70;64.20;;;;;;4953391;28;20054;-19
2022/02/08 00:37:34;;;;;;;1.35;1.25;;;17.60;64.20;;;;;;4938024;28;20048;-19
2022/02/08 00:40:00;;;;;;;1.48;1.38;;;17.60;64.30;;;;;;4950371;28;20051;-19
2022/02/08 00:42:26;;;;;;;1.45;1.30;;;17.60;64.20;;;;;;4937528;28;20554;-19
2022/02/08 00:45:05;;;;;;;1.45;1.30;;;17.60;64.20;;;;;;4938243;28;20083;-19
2022/02/08 00:47:35;;;;;;;1.05;1.00;;;17.60;64.20;;;;;;4937458;28;20051;-19
2022/02/08 00:50:07;;;;;;;1.13;1.10;;;17.60;64.30;;;;;;4938111;28;20054;-19
2022/02/08 00:52:33;;;;;;;1.08;1.08;;;17.60;64.40;;;;;;4938592;28;20044;-19
2022/02/08 00:54:59;;;;;;;1.05;1.02;;;17.60;64.30;;;;;;4956089;28;20051;-19
2022/02/08 00:57:25;;;;;;;1.15;1.10;;;17.60;64.40;;;;;;4956353;28;20071;-19
2022/02/08 00:59:50;;;;;;;1.40;1.30;;;17.50;64.40;;;;;;4945189;28;20051;-19
2022/02/08 01:02:16;;;;;;;0.93;0.93;;;17.50;64.40;;;;;;4965440;28;20504;-19
2022/02/08 01:04:47;;;;;;;1.30;1.20;;;17.50;64.40;;;;;;4968724;28;20054;-19
2022/02/08 01:07:13;;;;;;;1.00;1.00;;;17.50;64.50;;;;;;4963450;28;20047;-19
2022/02/08 01:09:48;;;;;;;1.30;1.20;;;17.50;64.40;;;;;;4951554;28;20493;-19
2022/02/08 01:12:14;;;;;;;1.40;1.30;;;17.50;64.50;;;;;;4941420;28;20082;-21
2022/02/08 01:14:42;;;;;;;2.03;1.10;;;17.50;64.40;;;;;;4945473;28;20632;-19
2022/02/08 01:17:08;;;;;;;1.30;1.20;;;17.50;64.50;;;;;;4960535;28;20047;-20
2022/02/08 01:19:35;;;;;;;1.50;1.40;;;17.50;64.50;;;;;;4950691;28;20082;-19
2022/02/08 01:22:01;;;;;;;1.00;1.00;;;17.50;64.40;;;;;;4943890;28;20074;-19
2022/02/08 01:24:26;;;;;;;1.17;1.10;;;17.50;64.60;;;;;;4945417;28;20103;-20
2022/02/08 01:27:06;;;;;;;1.02;1.02;;;17.40;64.60;;;;;;4939745;28;20134;-19
2022/02/08 01:29:52;;;;;;;1.10;0.98;;;17.40;64.60;;;;;;4953302;28;20115;-19
2022/02/08 01:32:47;;;;;;;0.88;0.82;;;17.40;64.60;;;;;;4940596;28;20130;-19
2022/02/08 01:38:07;;;;;;;1.00;1.00;;;17.50;64.70;;;;;;4959872;28;20046;-19
2022/02/08 01:40:59;;;;;;;1.00;1.00;;;17.40;64.70;;;;;;4953942;28;20058;-19
2022/02/08 01:46:09;;;;;;;0.90;0.90;;;17.40;64.80;;;;;;4940905;28;20103;-19
2022/02/08 01:51:30;;;;;;;0.80;0.80;;;17.40;64.80;;;;;;4938255;28;20520;-19
2022/02/08 01:53:55;;;;;;;1.10;1.00;;;17.40;64.80;;;;;;4952773;28;20420;-19
2022/02/08 01:56:21;;;;;;;0.80;0.80;;;17.40;65.00;;;;;;4959174;28;20059;-19
2022/02/08 01:58:46;;;;;;;1.33;1.23;;;17.40;64.90;;;;;;4959998;28;20484;-19
2022/02/08 02:01:12;;;;;;;0.80;0.80;;;17.40;64.90;;;;;;4944389;28;20118;-19
2022/02/08 02:03:40;;;;;;;0.70;0.70;;;17.40;64.90;;;;;;4959294;28;20404;-19
2022/02/08 02:06:06;;;;;;;0.80;0.80;;;17.40;65.00;;;;;;4941887;28;20078;-19
2022/02/08 02:08:31;;;;;;;0.85;0.85;;;17.40;65.00;;;;;;4941964;28;20193;-19
2022/02/08 02:10:57;;;;;;;0.77;0.77;;;17.40;65.00;;;;;;4942981;29;20690;-19
2022/02/08 02:13:43;;;;;;;0.73;0.73;;;17.40;65.00;;;;;;4940240;28;20568;-19
2022/02/08 02:16:10;;;;;;;0.70;0.70;;;17.30;65.10;;;;;;4940362;28;20523;-19
2022/02/08 02:18:36;;;;;;;0.90;0.90;;;17.30;65.10;;;;;;4939758;28;20051;-20
2022/02/08 02:21:03;;;;;;;0.95;0.95;;;17.30;65.10;;;;;;4947162;28;20072;-19
2022/02/08 02:23:29;;;;;;;0.70;0.70;;;17.30;65.10;;;;;;4956915;28;20043;-19
2022/02/08 02:25:55;;;;;;;0.50;0.50;;;17.30;65.00;;;;;;4958910;28;20051;-19
2022/02/08 02:28:21;;;;;;;0.70;0.70;;;17.30;65.00;;;;;;4954951;28;20058;-19
2022/02/08 02:30:46;;;;;;;0.77;0.77;;;17.30;64.90;;;;;;4939952;28;20054;-19
2022/02/08 02:33:12;;;;;;;0.77;0.77;;;17.30;64.80;;;;;;4940229;29;20409;-19
2022/02/08 02:35:38;;;;;;;1.05;1.05;;;17.30;64.80;;;;;;4939229;28;20091;-19
2022/02/08 02:38:04;;;;;;;0.70;0.70;;;17.40;64.90;;;;;;4946214;28;20107;-19
2022/02/08 02:40:33;;;;;;;1.10;1.10;;;17.40;64.90;;;;;;4956731;28;20051;-20
2022/02/08 02:42:58;;;;;;;0.80;0.80;;;17.30;64.90;;;;;;4957879;28;20464;-19
2022/02/08 02:45:24;;;;;;;0.65;0.65;;;17.30;64.90;;;;;;4949369;28;20048;-19
2022/02/08 02:47:52;;;;;;;0.70;0.70;;;17.30;65.00;;;;;;4940313;29;20460;-19
2022/02/08 02:50:21;;;;;;;0.70;0.70;;;17.30;65.10;;;;;;4939946;28;20047;-19
2022/02/08 02:52:47;;;;;;;0.70;0.70;;;17.30;65.00;;;;;;4939479;28;20138;-19
2022/02/08 02:55:15;;;;;;;0.68;0.68;;;17.30;65.30;;;;;;4946387;28;20071;-19
2022/02/08 02:57:42;;;;;;;0.63;0.63;;;17.30;65.20;;;;;;4957486;28;20119;-19
2022/02/08 03:00:12;;;;;;;0.80;0.80;;;17.30;65.20;;;;;;4958373;28;20055;-19
2022/02/08 03:05:57;;;;;;;0.70;0.70;;;17.20;65.20;;;;;;4944510;28;20134;-19
2022/02/08 03:18:49;;;;;;;0.70;0.70;;;17.20;65.40;;;;;;4947851;28;20106;-19
2022/02/08 03:21:14;;;;;;;0.82;0.82;;;17.20;65.30;;;;;;4944257;28;20044;-19
2022/02/08 03:23:40;;;;;;;0.70;0.70;;;17.20;65.20;;;;;;4953870;28;20789;-19
2022/02/08 03:26:06;;;;;;;0.50;0.50;;;17.30;65.30;;;;;;4939154;29;20469;-19
2022/02/08 03:28:31;;;;;;;0.40;0.40;;;17.20;65.20;;;;;;4954646;28;20047;-19
2022/02/08 03:30:57;;;;;;;0.70;0.70;;;17.20;65.20;;;;;;4958159;28;20062;-19
2022/02/08 03:33:25;;;;;;;0.60;0.60;;;17.20;65.20;;;;;;4957671;28;20055;-20
2022/02/08 03:35:53;;;;;;;0.50;0.50;;;17.20;65.30;;;;;;4958253;28;20047;-19
2022/02/08 03:38:25;;;;;;;0.65;0.65;;;17.20;65.30;;;;;;4948451;28;20052;-19
2022/02/08 03:40:52;;;;;;;0.60;0.60;;;17.20;65.30;;;;;;4957579;28;20047;-19
2022/02/08 03:45:50;;;;;;;0.60;0.60;;;17.20;65.30;;;;;;4938170;29;20611;-19
2022/02/08 03:48:18;;;;;;;0.50;0.50;;;17.20;65.30;;;;;;4956582;28;20110;-19
2022/02/08 03:50:49;;;;;;;0.60;0.60;;;17.20;65.40;;;;;;4957147;28;20078;-19
2022/02/08 03:53:15;;;;;;;0.38;0.38;;;17.10;65.30;;;;;;4951620;28;20509;-19
2022/02/08 03:55:41;;;;;;;0.63;0.60;;;17.20;65.30;;;;;;4951002;28;20048;-19
2022/02/08 03:58:06;;;;;;;0.55;0.55;;;17.20;65.30;;;;;;4938755;28;20062;-19
2022/02/08 04:00:40;;;;;;;0.43;0.43;;;17.20;65.30;;;;;;4937939;28;20134;-19
2022/02/08 04:03:06;;;;;;;0.60;0.60;;;17.20;65.30;;;;;;4939747;28;20058;-19
2022/02/08 04:05:40;;;;;;;0.60;0.60;;;17.20;65.20;;;;;;4938057;28;20043;-19
2022/02/08 04:08:09;;;;;;;1.27;0.40;;;17.20;65.30;;;;;;4938698;28;20054;-19
2022/02/08 04:10:35;;;;;;;0.63;0.55;;;17.20;65.20;;;;;;4951911;28;20044;-19
2022/02/08 04:15:43;;;;;;;0.40;0.40;;;17.10;65.20;;;;;;4940992;28;20106;-19
2022/02/08 04:34:27;;;;;;;0.50;0.50;;;17.10;65.30;;;;;;4956268;28;20178;-19
2022/02/08 04:47:00;;;;;;;0.43;0.43;;;17.10;65.30;;;;;;4959992;28;20054;-19
2022/02/08 04:49:26;;;;;;;0.40;0.40;;;17.10;65.40;;;;;;4960643;28;20516;-19
2022/02/08 04:51:59;;;;;;;0.40;0.40;;;17.10;65.40;;;;;;4961173;28;20310;-19
2022/02/08 05:26:41;;;;;;;0.30;0.30;;;17.10;65.30;;;;;;4956173;28;20435;-19
2022/02/08 05:43:16;;;;;;;;;;;17.10;65.30;;;;;;4970709;28;20070;-19
2022/02/08 05:48:27;;;;;;;0.30;0.30;;;17.10;65.40;;;;;;4961083;28;20046;-19
2022/02/08 05:51:55;;;;;;;0.40;0.40;;;17.00;65.40;;;;;;4961901;28;20059;-19
2022/02/08 05:53:45;;;;;;;0.43;0.43;;;17.00;65.40;;;;;;4942466;28;20047;-19
2022/02/08 05:56:14;;;;;;;0.30;0.30;;;17.00;65.30;;;;;;4942242;28;20070;-19
2022/02/08 05:58:42;;;;;;;0.20;0.20;;;17.00;66.10;;;;;;4939946;28;20413;-19
2022/02/08 06:01:08;;;;;;;0.30;0.30;;;17.10;65.20;;;;;;4944149;28;20048;-19
2022/02/08 06:03:33;;;;;;;0.30;0.30;;;17.10;65.20;;;;;;4975768;28;20045;-20
2022/02/08 06:05:59;;;;;;;0.32;0.32;;;17.00;65.30;;;;;;4958707;28;20055;-19
2022/02/08 06:08:25;;;;;;;0.40;0.40;;;17.00;65.30;;;;;;4958766;28;20043;-19
2022/02/08 06:10:56;;;;;;;0.32;0.32;;;17.00;65.20;;;;;;4950244;28;20062;-19
2022/02/08 06:13:22;;;;;;;0.40;0.40;;;17.00;65.30;;;;;;4940782;29;20043;-19
2022/02/08 06:15:50;;;;;;;0.40;0.40;;;17.00;65.30;;;;;;4956494;28;20110;-19
2022/02/08 06:18:15;;;;;;;0.20;0.20;;;17.00;65.50;;;;;;4959672;28;20142;-19
2022/02/08 06:20:41;;;;;;;0.20;0.20;;;17.00;65.40;;;;;;4959068;28;20063;-19
2022/02/08 06:23:07;;;;;;;0.40;0.40;;;17.00;65.40;;;;;;4956115;28;20044;-19
2022/02/08 06:25:33;;;;;;;0.30;0.30;;;17.00;65.40;;;;;;4925817;29;20449;-20
2022/02/08 06:27:58;;;;;;;0.22;0.22;;;17.00;65.30;;;;;;4940287;28;20106;-19
2022/02/08 06:30:24;;;;;;;0.28;0.28;;;17.00;65.30;;;;;;4948196;28;20051;-19
2022/02/08 06:32:52;;;;;;;0.20;0.20;;;17.00;65.40;;;;;;4958033;28;20039;-19
2022/02/08 06:35:24;;;;;;;0.30;0.30;;;17.00;65.50;;;;;;4959381;28;20047;-19
2022/02/08 06:37:50;;;;;;;0.30;0.30;;;17.00;65.40;;;;;;4955571;28;20043;-19
2022/02/08 06:40:16;;;;;;;0.20;0.20;;;17.00;65.40;;;;;;4968016;28;20062;-19
2022/02/08 06:42:42;;;;;;;0.30;0.30;;;17.00;65.30;;;;;;4956885;28;20055;-19
2022/02/08 06:45:09;;;;;;;0.20;0.20;;;17.00;65.40;;;;;;4940331;28;20051;-19
2022/02/08 06:47:35;;;;;;;0.20;0.20;;;17.00;65.50;;;;;;4950082;28;20094;-19
2022/02/08 06:50:03;;;;;;;0.40;0.40;;;17.00;65.40;;;;;;4973084;28;20051;-19
2022/02/08 06:52:28;;;;;;;0.22;0.22;;;17.00;65.40;;;;;;4959071;28;20055;-19
2022/02/08 06:54:54;;;;;;;0.28;0.28;;;17.00;65.40;;;;;;4939888;28;20052;-19
2022/02/08 06:57:20;;;;;;;0.30;0.30;;;17.00;65.30;;;;;;4939574;29;20394;-19
2022/02/08 06:59:54;;;;;;;0.20;0.20;;;17.00;65.40;;;;;;4939419;28;20090;-19
2022/02/08 07:02:20;;;;;;;0.20;0.20;;;17.00;65.30;;;;;;4962397;28;20031;-19
2022/02/08 07:04:45;;;;;;;0.20;0.20;;;16.90;65.30;;;;;;4958139;28;20050;-19
2022/02/08 07:07:15;;;;;;;0.30;0.30;;;17.00;65.40;;;;;;4953649;28;20067;-19
2022/02/08 07:09:42;;;;;;;0.30;0.30;;;17.00;65.40;;;;;;4938877;28;20062;-19
2022/02/08 07:12:09;;;;;;;0.50;0.50;;;17.00;65.30;;;;;;4939708;28;20410;-19
2022/02/08 07:14:34;;;;;;;0.35;0.35;;;17.00;65.30;;;;;;4939004;28;20067;-20
2022/02/08 07:17:00;;;;;;;0.22;0.22;;;17.00;65.30;;;;;;4939438;28;20047;-19
2022/02/08 07:19:25;;;;;;;0.17;0.17;;;16.90;65.30;;;;;;4939359;29;20048;-19
2022/02/08 07:21:52;;;;;;;0.20;0.20;;;16.90;65.30;;;;;;4945236;28;20050;-19
2022/02/08 07:24:18;;;;;;;0.20;0.20;;;17.00;65.40;;;;;;4949503;28;20051;-19
2022/02/08 07:26:46;;;;;;;0.20;0.20;;;16.90;65.20;;;;;;4957758;28;20049;-19
2022/02/08 07:29:12;;;;;;;0.50;0.50;;;16.90;65.30;;;;;;4958049;28;20051;-19
2022/02/08 07:31:46;;;;;;;0.20;0.20;;;16.90;65.30;;;;;;4945591;28;20050;-19
2022/02/08 07:34:22;;;;;;;0.20;0.20;;;16.90;66.10;;;;;;4958168;28;20510;-19
2022/02/08 07:39:27;;;;;;;0.20;0.20;;;16.90;65.30;;;;;;4945709;28;20051;-19
2022/02/08 07:41:52;;;;;;;0.25;0.25;;;16.90;65.30;;;;;;4944384;28;20043;-19
2022/02/08 07:44:18;;;;;;;0.25;0.25;;;16.90;65.30;;;;;;4941168;28;20106;-19
2022/02/08 07:46:44;;;;;;;0.20;0.20;;;16.90;65.30;;;;;;4937814;28;20135;-19
2022/02/08 07:49:09;;;;;;;0.30;0.30;;;16.90;65.30;;;;;;4938611;29;20054;-19
2022/02/08 07:51:38;;;;;;;0.20;0.20;;;16.90;65.30;;;;;;4949808;28;20031;-19
2022/02/08 07:54:04;;;;;;;1.75;0.20;;;16.90;65.30;;;;;;4947294;28;20071;-19
2022/02/08 07:56:29;;;;;;;0.38;0.30;;;16.90;65.30;;;;;;4951430;28;20953;-19
2022/02/08 07:58:55;;;;;;;0.77;0.43;;;16.90;65.30;;;;;;4955864;28;20105;-19
2022/02/08 08:01:21;;;;;;;0.40;0.40;;;16.90;65.10;;;;;;4954886;28;20528;-19
2022/02/08 08:03:48;;;;;;;0.30;0.30;;;16.90;65.10;;;;;;4937990;28;20052;-19
2022/02/08 08:06:15;;;;;;;0.40;0.38;;;16.90;65.20;;;;;;4958551;28;20086;-19
2022/02/08 08:08:40;;;;;;;0.38;0.38;;;16.90;65.30;;;;;;4934175;28;20051;-19
2022/02/08 08:11:11;;;;;;;1.45;0.20;;;16.90;65.40;;;;;;4935567;28;20474;-22
2022/02/08 08:13:47;;;;;;;0.40;0.40;;;16.90;65.30;;;;;;4933177;28;20102;-20
2022/02/08 08:19:00;;;;;;;1.20;0.35;;;16.90;65.50;;;;;;4920613;29;20139;-21
2022/02/08 08:21:26;;;;;;;0.77;0.47;;;16.90;65.50;;;;;;4919063;29;20503;-19
2022/02/08 08:23:52;;;;;;;0.28;0.28;;;16.90;65.50;;;;;;4936262;28;20105;-19
2022/02/08 08:26:18;;;;;;;0.30;0.30;;;16.90;65.50;;;;;;4926185;28;20073;-19
2022/02/08 08:28:43;;;;;;;0.30;0.30;;;16.90;65.60;;;;;;4936161;28;20535;-19
2022/02/08 08:31:09;;;;;;;0.30;0.30;;;16.90;65.60;;;;;;4944166;28;20058;-19
2022/02/08 08:33:35;;;;;;;0.28;0.28;;;16.90;65.60;;;;;;4937682;28;20107;-19
2022/02/08 08:36:00;;;;;;;0.30;0.30;;;16.80;65.60;;;;;;4937333;28;20039;-19
2022/02/08 08:38:28;;;;;;;0.50;0.50;;;16.90;65.70;;;;;;4936691;28;20050;-22
2022/02/08 08:49:12;;;;;;;0.22;0.22;;;16.90;65.70;;;;;;4940384;28;20066;-20
2022/02/08 08:51:43;;;;;;;0.20;0.20;;;16.90;65.70;;;;;;4943906;28;20055;-19
2022/02/08 08:54:09;;;;;;;0.47;0.28;;;16.90;65.70;;;;;;4938743;28;20122;-19
2022/02/08 08:56:39;;;;;;;0.40;0.40;;;16.90;65.70;;;;;;4950821;28;20125;-19
2022/02/08 08:59:06;;;;;;;0.22;0.22;;;16.90;65.70;;;;;;4953196;28;20054;-19
2022/02/08 09:01:31;;;;;;;0.20;0.20;;;16.90;65.70;;;;;;4956890;28;20036;-19
2022/02/08 09:03:57;;;;;;;0.40;0.20;;;16.90;65.30;;;;;;4954212;28;20090;-19
2022/02/08 09:06:23;;;;;;;0.17;0.13;;;16.90;65.50;;;;;;4967478;28;20580;-21
2022/02/08 09:08:48;;;;;;;0.22;0.22;;;16.90;65.60;;;;;;4954163;28;20460;-19
2022/02/08 09:11:33;;;;;;;0.45;0.20;;;16.90;65.60;;;;;;4950965;28;20080;-19
2022/02/08 09:17:05;;;;;;;0.30;0.30;;;16.90;65.60;;;;;;4949861;28;20099;-19
2022/02/08 09:29:52;;;;;;;0.28;0.10;;;16.90;65.30;;;;;;4957816;28;20467;-19
2022/02/08 09:32:21;;;;;;;0.10;0.10;;;16.90;65.30;;;;;;4947055;28;20043;-19
2022/02/08 09:34:47;;;;;;;0.13;0.13;;;16.90;65.30;;;;;;4958824;28;20047;-23
2022/02/08 09:37:15;;;;;;;0.68;0.30;;;16.90;65.30;;;;;;4956372;28;20035;-21
2022/02/08 09:39:41;;;;;;;0.50;0.30;;;16.90;65.30;;;;;;4957756;29;20126;-19
2022/02/08 09:42:07;;;;;;;0.20;0.20;;;16.90;65.70;;;;;;4958417;28;20055;-19
2022/02/08 09:44:33;;;;;;;1.00;0.60;;;17.00;65.30;;;;;;4957933;28;20114;-19
2022/02/08 09:47:00;;;;;;;0.20;0.20;;;16.90;65.20;;;;;;4955456;28;20106;-19
2022/02/08 09:49:26;;;;;;;0.20;0.20;;;16.90;65.30;;;;;;4956791;28;20047;-19
2022/02/08 09:51:52;;;;;;;0.20;0.20;;;16.90;65.30;;;;;;4956217;28;20050;-19
2022/02/08 09:54:20;;;;;;;0.32;0.30;;;16.90;65.30;;;;;;4951521;28;20042;-19
2022/02/08 09:56:46;;;;;;;0.38;0.30;;;16.90;65.30;;;;;;4966516;28;20074;-20
2022/02/08 09:59:11;;;;;;;0.43;0.30;;;16.90;65.30;;;;;;4934371;28;20051;-19
2022/02/08 10:01:40;;;;;;;0.28;0.28;;;16.90;65.30;;;;;;4956904;28;20405;-19
2022/02/08 10:04:05;;;;;;;0.98;0.43;;;16.90;65.30;;;;;;4948029;28;20099;-19
2022/02/08 10:06:31;;;;;;;0.40;0.28;;;16.90;65.30;;;;;;4956959;28;20035;-19
2022/02/08 10:09:01;;;;;;;0.20;0.20;;;16.90;65.30;;;;;;4615251;28;9999728;-20
2022/02/08 10:11:31;;;;;;;0.25;0.25;;;16.90;65.20;;;;;;4951366;28;20043;-20
2022/02/08 10:14:02;;;;;;;0.35;0.35;;;16.90;65.10;;;;;;4958421;28;20416;-19
2022/02/08 10:22:06;;;;;;;0.50;0.30;;;17.00;66.30;;;;;;4952457;28;19949;-20
2022/02/08 10:24:33;;;;;;;2.78;0.25;;;16.90;66.40;;;;;;4958022;28;20059;-20
2022/02/08 10:27:04;;;;;;;0.20;0.20;;;16.90;66.30;;;;;;4960121;28;20480;-20
2022/02/08 10:29:55;;;;;;;0.30;0.30;;;16.90;66.30;;;;;;4947823;28;20102;-19
2022/02/08 10:38:08;;;;;;;0.22;0.20;;;16.90;66.50;;;;;;4950015;28;20118;-20
2022/02/08 10:40:37;;;;;;;0.30;0.30;;;16.90;66.50;;;;;;4956416;28;20086;-20
2022/02/08 10:43:04;;;;;;;0.63;0.17;;;16.80;66.50;;;;;;4949030;28;20044;-20
2022/02/08 10:45:34;;;;;;;2.22;0.30;;;17.00;66.60;;;;;;4939450;28;20091;-19
2022/02/08 10:48:04;;;;;;;0.30;0.30;;;17.00;66.10;;;;;;4950302;28;20483;-18
2022/02/08 10:50:34;;;;;;;0.93;0.20;;;17.00;66.10;;;;;;4958205;28;20047;-18
2022/02/08 10:53:01;;;;;;;0.22;0.22;;;17.00;66.30;;;;;;4939609;28;20575;-18
2022/02/08 11:03:15;;;;;;;0.40;0.40;;;16.90;66.30;;;;;;4953756;28;20420;-18
2022/02/08 11:05:54;;;;;;;0.30;0.30;;;16.90;66.40;;;;;;4953456;28;20409;-18
2022/02/08 11:16:05;;;;;;;0.32;0.20;;;16.90;66.30;;;;;;4957083;28;20456;-19
2022/02/08 11:18:40;;;;;;;0.20;0.17;;;17.00;66.50;;;;;;4946198;28;20055;-19
2022/02/08 11:21:23;;;;;;;0.20;0.20;;;17.00;66.10;;;;;;4955942;28;20159;-19
2022/02/08 11:26:35;;;;;;;0.20;0.20;;;16.90;66.30;;;;;;4948026;28;20529;-19
2022/02/08 11:29:35;;;;;;;0.40;0.40;;;16.90;66.10;;;;;;4956045;28;20420;-19
2022/02/08 11:32:42;;;;;;;0.30;0.25;;;17.00;66.40;;;;;;4955350;28;20043;-18
2022/02/08 11:46:24;;;;;;;41.55;28.73;;;17.10;66.00;;;;;;4950535;28;20487;-20
2022/02/08 12:09:32;;;;;;;157.60;96.45;;;17.10;66.90;;;;;;4929130;29;20062;-19
2022/02/08 12:29:03;;;;;;;724.78;496.35;;;17.20;67.80;;;;;;4944849;28;20137;-19
2022/02/08 12:39:36;;;;;;;408.73;260.05;;;17.10;66.80;;;;;;4942999;28;20051;-20
2022/02/08 12:48:35;;;;;;;391.45;249.40;;;17.20;66.50;;;;;;4950163;28;20050;-20
2022/02/08 12:59:38;;;;;;;375.48;241.82;;;17.20;66.20;;;;;;4949264;28;20460;-20
2022/02/08 13:04:34;;;;;;;363.85;237.20;;;17.20;66.30;;;;;;4952067;28;20172;-21
2022/02/08 14:04:44;;;;;;;;;;;17.10;66.10;;;;;;4961179;28;20054;-20
2022/02/08 14:08:56;;;;;;;254.80;161.18;;;17.10;65.90;;;;;;4950815;28;20098;-19
2022/02/08 14:16:46;;;;;;;243.60;148.70;;;17.20;65.90;;;;;;4950364;28;20138;-19
2022/02/08 14:19:32;;;;;;;232.65;142.93;;;17.20;65.60;;;;;;4958093;28;20043;-19
2022/02/08 14:29:56;;;;;;;;;;;17.20;65.30;;;;;;4960762;28;20121;-19
2022/02/08 14:32:35;;;;;;;214.98;136.98;;;17.20;65.50;;;;;;4953297;28;19984;-20
2022/02/08 15:08:07;;;;;;;177.65;112.05;;;17.10;65.40;;;;;;4956840;28;20059;-19
2022/02/08 15:11:00;;;;;;;170.75;109.78;;;17.10;65.50;;;;;;4958906;28;20054;-21
2022/02/08 15:13:27;;;;;;;167.25;106.03;;;17.20;65.50;;;;;;4950402;28;20086;-20
2022/02/08 15:18:27;;;;;;;172.35;108.55;;;17.20;66.10;;;;;;4942192;28;20534;-19
2022/02/08 15:20:53;;;;;;;172.75;109.45;;;17.20;66.10;;;;;;4952538;28;20040;-20
2022/02/08 15:23:21;;;;;;;166.20;104.80;;;17.20;66.20;;;;;;4956814;28;20043;-20
2022/02/08 15:25:47;;;;;;;154.52;96.60;;;17.20;66.20;;;;;;4954239;28;20122;-19
2022/02/08 15:28:13;;;;;;;155.10;97.85;;;17.20;66.30;;;;;;4945687;28;20634;-19
2022/02/08 15:30:40;;;;;;;159.65;99.45;;;17.30;66.30;;;;;;4957971;28;20460;-19
2022/02/08 15:33:08;;;;;;;152.48;97.68;;;17.30;66.20;;;;;;4948299;28;20051;-20
2022/02/08 15:35:34;;;;;;;151.45;95.20;;;17.20;66.00;;;;;;4952020;28;20627;-19
2022/02/08 15:37:59;;;;;;;152.15;95.78;;;17.30;66.10;;;;;;4955454;28;20412;-20
2022/02/08 15:40:25;;;;;;;154.23;97.68;;;17.20;66.00;;;;;;4942521;28;20119;-20
2022/02/08 15:42:51;;;;;;;151.13;94.45;;;17.20;66.00;;;;;;4956302;28;20102;-19
2022/02/08 15:45:28;;;;;;;143.77;91.90;;;17.40;65.80;;;;;;4961041;28;20185;-21
2022/02/08 15:47:56;;;;;;;151.48;95.82;;;17.30;65.50;;;;;;4955672;28;20113;-19
2022/02/08 15:50:44;;;;;;;147.45;94.00;;;17.30;65.70;;;;;;4956326;28;20050;-21
2022/02/08 15:55:49;;;;;;;144.35;90.00;;;17.20;65.70;;;;;;4956176;28;20560;-19
2022/02/08 16:01:09;;;;;;;134.90;84.97;;;17.20;65.70;;;;;;4955493;28;20043;-19
2022/02/08 16:09:24;;;;;;;127.93;78.68;;;17.20;65.80;;;;;;4956691;28;20046;-19
2022/02/08 16:12:01;;;;;;;121.88;78.47;;;17.20;65.70;;;;;;4954379;28;20130;-19
2022/02/08 16:53:48;;;;;;;111.85;72.45;;;17.20;65.60;;;;;;5072599;28;20048;-27
2022/02/08 16:56:23;;;;;;;116.88;72.68;;;17.20;65.70;;;;;;5089297;28;20098;-27
2022/02/08 16:58:56;;;;;;;110.72;71.90;;;17.10;65.60;;;;;;5070996;27;20143;-27
2022/02/08 17:01:28;;;;;;;107.83;69.30;;;17.10;65.60;;;;;;5089288;28;20106;-27
2022/02/08 17:03:54;;;;;;;108.30;71.47;;;17.10;65.50;;;;;;5071564;28;20351;-25
2022/02/08 17:06:24;;;;;;;109.45;72.88;;;17.20;65.60;;;;;;5088997;28;20187;-27
2022/02/08 17:08:57;;;;;;;105.47;67.07;;;17.20;65.60;;;;;;5069897;27;20504;-27
2022/02/08 17:12:13;;;;;;;106.22;68.35;;;17.20;65.60;;;;;;5084448;28;20051;-27
2022/02/08 17:46:00;;;;;;;85.55;54.13;;;17.10;65.70;;;;;;5069970;28;20099;-27
2022/02/08 17:48:26;;;;;;;88.10;56.85;;;17.10;65.70;;;;;;5056744;28;20037;-27
2022/02/08 17:50:52;;;;;;;84.88;55.08;;;17.10;65.60;;;;;;5036907;28;20048;-27
2022/02/08 17:53:18;;;;;;;82.30;51.67;;;17.10;65.60;;;;;;5067469;28;20087;-27
2022/02/08 17:55:44;;;;;;;84.07;53.65;;;17.10;65.50;;;;;;5056451;28;20044;-28
2022/02/08 17:58:09;;;;;;;73.72;49.97;;;17.00;65.50;;;;;;5070681;28;20122;-26
2022/02/08 18:00:35;;;;;;;80.55;51.45;;;17.10;65.50;;;;;;5074279;28;20037;-26
2022/02/08 18:03:04;;;;;;;77.72;52.33;;;17.00;65.50;;;;;;5053280;28;20425;-26
2022/02/08 18:05:29;;;;;;;81.82;49.85;;;17.00;65.40;;;;;;5062045;28;20049;-26
2022/02/08 18:07:56;;;;;;;72.78;46.60;;;17.00;65.50;;;;;;5072685;28;20037;-26
2022/02/08 18:10:24;;;;;;;74.03;47.60;;;17.00;65.50;;;;;;5054824;28;20041;-26
2022/02/08 18:12:52;;;;;;;76.18;46.80;;;17.00;65.40;;;;;;5070670;28;20040;-26
2022/02/08 18:15:17;;;;;;;70.88;45.30;;;17.00;65.40;;;;;;5075111;28;20119;-26
2022/02/08 18:17:51;;;;;;;69.20;45.30;;;17.00;65.50;;;;;;5073935;28;20481;-26
2022/02/08 18:28:59;;;;;;;66.65;42.55;;;17.00;65.50;;;;;;5060383;28;20097;-27
2022/02/08 19:19:18;;;;;;;50.00;33.88;;;17.10;65.90;;;;;;5055224;28;20102;-26
2022/02/08 19:21:46;;;;;;;55.50;33.70;;;17.10;65.70;;;;;;5057205;28;20091;-26
2022/02/08 19:24:18;;;;;;;47.47;32.90;;;17.20;65.70;;;;;;5065094;28;20076;-26
2022/02/08 19:26:49;;;;;;;50.63;33.25;;;17.10;65.70;;;;;;5060128;28;20416;-26
2022/02/08 19:29:14;;;;;;;50.55;32.13;;;17.10;65.70;;;;;;5067174;28;20048;-25
2022/02/08 19:31:42;;;;;;;49.67;33.08;;;17.20;65.70;;;;;;5040342;28;20106;-25
2022/02/08 19:34:07;;;;;;;46.97;31.02;;;17.20;65.90;;;;;;5058251;28;20470;-26
2022/02/08 19:36:33;;;;;;;45.08;31.45;;;17.10;65.60;;;;;;5063590;28;20135;-26
2022/02/08 19:39:03;;;;;;;43.88;29.70;;;17.20;65.60;;;;;;5056555;28;20497;-26
2022/02/08 19:41:29;;;;;;;52.42;31.20;;;17.20;65.60;;;;;;5061275;28;20044;-26
2022/02/08 19:43:57;;;;;;;45.50;31.58;;;17.20;65.40;;;;;;5058490;28;20048;-25
2022/02/08 19:46:23;;;;;;;45.15;31.33;;;17.20;65.40;;;;;;5074395;28;20049;-26
2022/02/08 19:48:49;;;;;;;47.10;30.92;;;17.20;66.20;;;;;;5064886;28;20079;-26
2022/02/08 19:51:15;;;;;;;47.95;30.42;;;17.20;65.70;;;;;;5060628;28;20079;-26
2022/02/08 19:53:43;;;;;;;43.75;29.58;;;17.20;66.30;;;;;;5065430;28;20059;-25
2022/02/08 19:58:51;;;;;;;44.92;29.83;;;17.20;66.60;;;;;;5050518;28;20052;-26
2022/02/08 20:01:26;;;;;;;40.78;27.80;;;17.30;66.40;;;;;;5046955;28;20045;-25
2022/02/08 20:03:58;;;;;;;43.88;28.52;;;17.20;66.60;;;;;;5062822;28;20119;-25
2022/02/08 20:06:24;;;;;;;46.00;29.15;;;17.20;67.10;;;;;;5063036;28;20048;-25
2022/02/08 20:08:50;;;;;;;43.45;28.63;;;17.20;67.10;;;;;;5069525;28;20097;-25
2022/02/08 20:11:16;;;;;;;44.72;29.55;;;17.20;67.00;;;;;;5059969;28;20037;-26
2022/02/08 20:13:51;;;;;;;42.92;30.13;;;17.20;67.10;;;;;;5060293;28;20041;-26
2022/02/08 20:16:20;;;;;;;42.53;28.50;;;17.20;67.30;;;;;;5059284;28;20041;-26
2022/02/08 20:18:53;;;;;;;38.47;26.52;;;17.20;67.50;;;;;;5058254;28;20060;-26
2022/02/08 20:21:21;;;;;;;39.50;26.40;;;17.30;67.30;;;;;;5099266;28;20115;-25
2022/02/08 20:23:48;;;;;;;35.13;25.80;;;17.20;67.90;;;;;;5062387;28;20040;-26
2022/02/08 20:26:14;;;;;;;37.35;25.60;;;17.20;67.40;;;;;;5054464;28;20047;-25
2022/02/08 20:28:56;;;;;;;39.63;27.25;;;17.20;67.10;;;;;;5055628;28;20057;-26
2022/02/08 20:31:22;;;;;;;37.65;24.98;;;17.20;67.10;;;;;;5078892;28;20041;-26
2022/02/08 20:33:49;;;;;;;37.08;24.00;;;17.20;67.30;;;;;;5061833;28;20052;-26
2022/02/08 20:36:16;;;;;;;33.90;24.55;;;17.10;67.10;;;;;;5056936;28;20123;-25
2022/02/08 20:38:48;;;;;;;36.25;24.42;;;17.20;67.10;;;;;;5063930;28;20527;-26
2022/02/08 20:41:15;;;;;;;36.28;23.88;;;17.20;67.30;;;;;;5065486;28;20048;-26
2022/02/08 20:43:41;;;;;;;36.50;24.75;;;17.20;67.50;;;;;;5068269;28;20057;-25
2022/02/08 20:46:09;;;;;;;34.58;24.17;;;17.20;67.20;;;;;;5055236;28;20040;-25
2022/02/08 20:48:36;;;;;;;38.80;25.00;;;17.20;67.30;;;;;;5068487;28;20101;-26
2022/02/08 20:51:03;;;;;;;34.83;23.38;;;17.20;67.40;;;;;;5073419;28;20577;-25